Time;durP1;ratioP1;P1;durP2;ratioP2;P2;SDS_P1;SDS_P2;PMS_P1;PMS_P2;Temp;Humidity;BMP_temperature;BMP_pressure;BME280_temperature;BME280_humidity;BME280_pressure;Samples;Min_cycle;Max_cycle;Signal;HPM_P1;HPM_P2
2023/03/07 00:02:10;;;;;;;14.43;8.15;;;;;;;;;;5006537;28;20046;-69
2023/03/07 00:04:35;;;;;;;15.50;8.02;;;;;;;;;;5008052;28;20061;-67
2023/03/07 00:07:01;;;;;;;12.63;7.78;;;;;;;;;;5009217;28;20065;-70
2023/03/07 00:09:27;;;;;;;14.57;8.68;;;;;;;;;;4995399;28;20073;-70
2023/03/07 00:11:52;;;;;;;13.25;7.47;;;;;;;;;;5003447;28;20621;-69
2023/03/07 00:14:18;;;;;;;14.05;7.78;;;;;;;;;;5007832;28;20033;-68
2023/03/07 00:16:44;;;;;;;9.18;6.40;;;;;;;;;;5009053;28;20030;-68
2023/03/07 00:19:10;;;;;;;14.05;7.90;;;;;;;;;;5005325;28;20091;-68
2023/03/07 00:21:36;;;;;;;13.65;7.10;;;;;;;;;;5007643;28;20053;-68
2023/03/07 00:24:01;;;;;;;11.85;7.65;;;;;;;;;;5008847;28;20034;-67
2023/03/07 00:26:27;;;;;;;12.25;6.97;;;;;;;;;;5013061;28;20511;-69
2023/03/07 00:28:54;;;;;;;14.25;7.32;;;;;;;;;;5020057;28;20045;-69
2023/03/07 00:31:21;;;;;;;12.25;7.38;;;;;;;;;;5011664;28;20100;-68
2023/03/07 00:33:47;;;;;;;10.90;6.85;;;;;;;;;;5007818;28;20069;-68
2023/03/07 00:36:19;;;;;;;12.55;7.32;;;;;;;;;;5006689;28;20069;-68
2023/03/07 00:38:45;;;;;;;9.93;6.35;;;;;;;;;;5003784;28;20208;-68
2023/03/07 00:41:14;;;;;;;16.23;7.75;;;;;;;;;;5008744;28;20401;-67
2023/03/07 00:43:40;;;;;;;14.00;8.20;;;;;;;;;;4992308;28;20041;-68
2023/03/07 00:46:06;;;;;;;15.48;8.60;;;;;;;;;;4990165;28;20030;-68
2023/03/07 00:48:34;;;;;;;11.98;7.57;;;;;;;;;;5005875;28;20088;-68
2023/03/07 00:51:00;;;;;;;13.98;7.25;;;;;;;;;;5010572;28;20101;-68
2023/03/07 00:53:26;;;;;;;13.32;7.50;;;;;;;;;;5011607;28;20109;-68
2023/03/07 00:55:56;;;;;;;11.32;7.05;;;;;;;;;;4993720;28;20046;-69
2023/03/07 00:58:22;;;;;;;16.20;7.95;;;;;;;;;;5006322;28;20517;-69
2023/03/07 01:00:49;;;;;;;17.23;9.52;;;;;;;;;;5007785;28;20040;-69
2023/03/07 01:03:15;;;;;;;11.95;7.55;;;;;;;;;;4988758;28;20030;-68
2023/03/07 01:05:40;;;;;;;12.43;8.20;;;;;;;;;;5003951;28;20048;-68
2023/03/07 01:08:06;;;;;;;7.35;5.25;;;;;;;;;;5009125;28;20033;-68
2023/03/07 01:10:32;;;;;;;14.65;7.43;;;;;;;;;;5004954;28;20033;-67
2023/03/07 01:12:59;;;;;;;14.02;7.43;;;;;;;;;;5006200;28;20056;-67
2023/03/07 01:15:25;;;;;;;7.57;6.65;;;;;;;;;;5003178;28;20030;-68
2023/03/07 01:17:50;;;;;;;12.43;7.35;;;;;;;;;;4996701;28;20048;-67
2023/03/07 01:20:16;;;;;;;9.98;6.28;;;;;;;;;;5001879;28;20496;-68
2023/03/07 01:22:42;;;;;;;12.05;6.68;;;;;;;;;;5006160;28;20038;-69
2023/03/07 01:25:08;;;;;;;12.02;7.45;;;;;;;;;;5005067;28;20043;-68
2023/03/07 01:27:34;;;;;;;8.30;5.90;;;;;;;;;;4993285;28;20038;-69
2023/03/07 01:30:00;;;;;;;12.60;7.10;;;;;;;;;;5005168;28;20041;-68
2023/03/07 01:32:25;;;;;;;10.18;6.90;;;;;;;;;;5003708;28;20045;-68
2023/03/07 01:34:51;;;;;;;10.60;6.43;;;;;;;;;;4996775;28;20034;-67
2023/03/07 01:37:17;;;;;;;14.10;8.38;;;;;;;;;;5006694;28;20038;-68
2023/03/07 01:39:44;;;;;;;11.57;6.63;;;;;;;;;;5002377;28;20129;-67
2023/03/07 01:42:14;;;;;;;19.33;8.88;;;;;;;;;;4988122;28;20074;-68
2023/03/07 01:44:59;;;;;;;13.95;7.28;;;;;;;;;;4988770;28;20062;-68
2023/03/07 01:47:29;;;;;;;12.18;6.97;;;;;;;;;;5003119;28;20034;-68
2023/03/07 01:49:56;;;;;;;12.32;6.60;;;;;;;;;;5008357;28;20038;-68
2023/03/07 01:52:31;;;;;;;11.73;6.88;;;;;;;;;;5004143;28;20181;-69
2023/03/07 01:55:08;;;;;;;12.18;7.97;;;;;;;;;;5005653;28;20040;-68
2023/03/07 01:57:37;;;;;;;12.32;7.03;;;;;;;;;;4988820;28;20523;-69
2023/03/07 02:00:08;;;;;;;11.05;6.22;;;;;;;;;;5007145;28;20030;-69
2023/03/07 02:02:42;;;;;;;12.55;7.70;;;;;;;;;;5002660;28;20034;-68
2023/03/07 02:05:13;;;;;;;14.57;7.32;;;;;;;;;;5002357;28;20042;-68
2023/03/07 02:07:45;;;;;;;14.60;8.30;;;;;;;;;;5003838;28;20068;-68
2023/03/07 02:10:13;;;;;;;13.07;7.93;;;;;;;;;;5004135;28;20120;-68
2023/03/07 02:12:40;;;;;;;13.38;8.18;;;;;;;;;;5004020;28;20053;-68
2023/03/07 02:15:08;;;;;;;13.95;8.15;;;;;;;;;;5002262;28;20033;-69
2023/03/07 02:17:34;;;;;;;15.80;9.02;;;;;;;;;;5009478;28;20079;-68
2023/03/07 02:20:17;;;;;;;12.02;8.25;;;;;;;;;;5008611;28;20033;-69
2023/03/07 02:22:43;;;;;;;13.07;7.55;;;;;;;;;;5010817;28;20034;-68
2023/03/07 02:25:43;;;;;;;15.30;8.73;;;;;;;;;;5016280;28;20066;-70
2023/03/07 02:28:15;;;;;;;17.98;7.75;;;;;;;;;;5011216;28;20042;-68
2023/03/07 02:31:06;;;;;;;14.93;8.35;;;;;;;;;;5003499;28;20041;-69
2023/03/07 02:33:34;;;;;;;9.70;6.20;;;;;;;;;;5005886;28;20065;-68
2023/03/07 02:36:09;;;;;;;13.55;7.75;;;;;;;;;;5005143;28;20556;-68
2023/03/07 02:38:41;;;;;;;12.57;8.68;;;;;;;;;;5005072;28;20090;-67
2023/03/07 02:41:09;;;;;;;;;;;;;;;;;;5005747;28;20034;-66
2023/03/07 02:43:34;;;;;;;13.88;8.13;;;;;;;;;;5011103;28;19924;-69
2023/03/07 02:46:01;;;;;;;14.52;8.35;;;;;;;;;;5006287;28;20042;-68
2023/03/07 02:48:26;;;;;;;14.10;8.13;;;;;;;;;;5008789;28;20464;-68
2023/03/07 02:50:52;;;;;;;11.95;7.72;;;;;;;;;;5008358;28;20045;-68
2023/03/07 02:53:18;;;;;;;14.18;7.72;;;;;;;;;;5009613;28;20033;-68
2023/03/07 02:55:44;;;;;;;15.95;8.23;;;;;;;;;;5007763;28;20036;-69
2023/03/07 02:58:09;;;;;;;15.82;8.77;;;;;;;;;;5006368;28;20034;-68
2023/03/07 03:00:36;;;;;;;15.32;7.65;;;;;;;;;;5008875;28;20444;-67
2023/03/07 03:03:02;;;;;;;11.20;7.65;;;;;;;;;;5009893;28;20034;-69
2023/03/07 03:05:28;;;;;;;13.60;8.00;;;;;;;;;;5010747;28;20088;-68
2023/03/07 03:07:54;;;;;;;11.82;7.72;;;;;;;;;;5004137;28;20038;-67
2023/03/07 03:10:19;;;;;;;13.48;8.43;;;;;;;;;;5008117;28;20109;-67
2023/03/07 03:12:46;;;;;;;15.57;8.77;;;;;;;;;;5007093;28;20030;-68
2023/03/07 03:15:12;;;;;;;12.38;7.45;;;;;;;;;;5007316;28;20064;-68
2023/03/07 03:17:38;;;;;;;10.82;7.45;;;;;;;;;;5005197;28;20033;-68
2023/03/07 03:20:06;;;;;;;14.43;8.10;;;;;;;;;;5007565;28;20049;-69
2023/03/07 03:22:32;;;;;;;15.35;8.73;;;;;;;;;;5000706;28;20038;-69
2023/03/07 03:24:58;;;;;;;12.35;8.20;;;;;;;;;;5004830;28;20446;-69
2023/03/07 03:27:23;;;;;;;12.85;8.00;;;;;;;;;;5008371;28;20124;-68
2023/03/07 03:29:53;;;;;;;13.45;7.82;;;;;;;;;;5008045;28;20051;-68
2023/03/07 03:32:19;;;;;;;13.85;8.32;;;;;;;;;;5008237;28;20112;-69
2023/03/07 03:34:44;;;;;;;10.13;6.68;;;;;;;;;;5005911;28;20125;-68
2023/03/07 03:37:10;;;;;;;14.43;8.45;;;;;;;;;;5007054;28;20116;-67
2023/03/07 03:39:36;;;;;;;14.88;8.77;;;;;;;;;;5008416;28;20153;-68
2023/03/07 03:42:02;;;;;;;12.85;8.05;;;;;;;;;;5003780;28;20026;-69
2023/03/07 03:44:28;;;;;;;8.85;6.25;;;;;;;;;;5010243;28;20655;-68
2023/03/07 03:46:55;;;;;;;12.65;8.23;;;;;;;;;;5005866;28;20049;-68
2023/03/07 03:49:22;;;;;;;10.68;7.18;;;;;;;;;;5001716;28;20403;-67
2023/03/07 03:51:49;;;;;;;14.10;7.03;;;;;;;;;;5005227;28;20393;-66
2023/03/07 03:54:16;;;;;;;14.85;8.55;;;;;;;;;;5007616;28;20408;-67
2023/03/07 03:56:42;;;;;;;13.10;8.95;;;;;;;;;;5005722;28;20029;-67
2023/03/07 03:59:07;;;;;;;12.45;7.03;;;;;;;;;;4999147;28;20510;-70
2023/03/07 04:01:33;;;;;;;11.73;6.95;;;;;;;;;;5006991;28;20042;-70
2023/03/07 04:03:58;;;;;;;8.00;6.28;;;;;;;;;;5003991;28;20038;-68
2023/03/07 04:06:30;;;;;;;9.07;6.35;;;;;;;;;;5007567;28;20121;-67
2023/03/07 04:08:56;;;;;;;9.73;6.28;;;;;;;;;;5012591;28;20048;-67
2023/03/07 04:11:23;;;;;;;10.27;6.13;;;;;;;;;;5005823;28;20049;-67
2023/03/07 04:13:50;;;;;;;11.52;6.03;;;;;;;;;;5009359;28;20058;-68
2023/03/07 04:16:16;;;;;;;9.18;6.93;;;;;;;;;;4996598;28;20046;-67
2023/03/07 04:18:42;;;;;;;11.23;8.10;;;;;;;;;;4992572;28;20048;-67
2023/03/07 04:21:11;;;;;;;8.23;5.85;;;;;;;;;;5002140;28;20046;-69
2023/03/07 04:23:38;;;;;;;15.02;8.70;;;;;;;;;;5003664;28;20668;-67
2023/03/07 04:26:06;;;;;;;6.47;5.28;;;;;;;;;;5009551;28;20037;-69
2023/03/07 04:28:44;;;;;;;11.38;7.15;;;;;;;;;;5022147;28;20055;-68
2023/03/07 04:31:21;;;;;;;15.20;7.97;;;;;;;;;;5001797;28;20038;-68
2023/03/07 04:33:47;;;;;;;10.52;6.72;;;;;;;;;;5009750;28;20026;-69
2023/03/07 04:36:15;;;;;;;8.50;5.20;;;;;;;;;;5007896;28;20041;-70
2023/03/07 04:38:41;;;;;;;11.57;4.85;;;;;;;;;;5003008;28;20038;-69
2023/03/07 04:41:09;;;;;;;9.20;5.75;;;;;;;;;;5006173;28;20109;-68
2023/03/07 04:43:35;;;;;;;15.07;8.95;;;;;;;;;;5006968;28;20034;-68
2023/03/07 04:46:01;;;;;;;10.57;6.00;;;;;;;;;;5008156;28;20042;-68
2023/03/07 04:48:27;;;;;;;10.10;6.43;;;;;;;;;;5001039;28;20504;-68
2023/03/07 04:50:53;;;;;;;14.00;8.32;;;;;;;;;;4999114;28;20046;-68
2023/03/07 04:53:19;;;;;;;9.80;6.80;;;;;;;;;;5004410;28;20279;-68
2023/03/07 04:55:45;;;;;;;10.18;6.65;;;;;;;;;;5003549;28;20560;-68
2023/03/07 04:58:12;;;;;;;13.02;8.02;;;;;;;;;;5008363;28;20088;-68
2023/03/07 05:00:44;;;;;;;11.75;7.65;;;;;;;;;;5005410;28;20066;-68
2023/03/07 05:03:11;;;;;;;11.02;6.90;;;;;;;;;;5008399;28;20037;-67
2023/03/07 05:05:36;;;;;;;13.63;7.10;;;;;;;;;;5006692;28;20029;-67
2023/03/07 05:08:03;;;;;;;7.13;5.78;;;;;;;;;;5004397;28;20398;-68
2023/03/07 05:10:30;;;;;;;8.85;5.82;;;;;;;;;;5006728;28;20038;-70
2023/03/07 05:12:56;;;;;;;7.53;5.97;;;;;;;;;;5004719;28;20038;-67
2023/03/07 05:15:22;;;;;;;16.30;7.82;;;;;;;;;;5000328;28;20042;-68
2023/03/07 05:17:48;;;;;;;13.02;7.45;;;;;;;;;;5002839;28;20069;-69
2023/03/07 05:20:13;;;;;;;9.85;6.75;;;;;;;;;;4996868;28;20042;-71
2023/03/07 05:22:40;;;;;;;7.57;6.50;;;;;;;;;;4999072;28;20053;-69
2023/03/07 05:25:06;;;;;;;10.55;6.45;;;;;;;;;;5001034;28;20034;-68
2023/03/07 05:27:32;;;;;;;11.25;7.13;;;;;;;;;;5007131;28;20030;-67
2023/03/07 05:29:58;;;;;;;8.40;5.53;;;;;;;;;;5001701;28;20080;-67
2023/03/07 05:32:24;;;;;;;12.52;6.88;;;;;;;;;;5001515;28;20042;-71
2023/03/07 05:34:50;;;;;;;13.05;7.78;;;;;;;;;;5006657;28;20481;-71
2023/03/07 05:37:18;;;;;;;14.98;7.43;;;;;;;;;;5006184;28;20045;-69
2023/03/07 05:39:44;;;;;;;9.75;6.82;;;;;;;;;;5006437;28;20508;-69
2023/03/07 05:42:10;;;;;;;15.27;7.43;;;;;;;;;;5000614;28;20037;-67
2023/03/07 05:44:36;;;;;;;19.83;7.60;;;;;;;;;;5006419;28;20311;-71
2023/03/07 05:47:03;;;;;;;15.38;7.75;;;;;;;;;;5005095;28;20084;-68
2023/03/07 05:49:30;;;;;;;10.10;7.28;;;;;;;;;;4994533;28;20097;-66
2023/03/07 05:51:55;;;;;;;11.27;7.45;;;;;;;;;;5005224;28;20034;-67
2023/03/07 05:54:21;;;;;;;12.23;7.60;;;;;;;;;;5006268;28;20037;-66
2023/03/07 05:56:47;;;;;;;11.60;7.90;;;;;;;;;;4994669;28;20049;-69
2023/03/07 05:59:14;;;;;;;11.20;7.30;;;;;;;;;;4991229;28;20498;-70
2023/03/07 06:01:42;;;;;;;9.32;5.45;;;;;;;;;;5007990;28;20081;-69
2023/03/07 06:04:08;;;;;;;10.63;6.38;;;;;;;;;;5001913;28;20118;-69
2023/03/07 06:06:33;;;;;;;13.02;7.30;;;;;;;;;;5005457;28;20512;-69
2023/03/07 06:08:59;;;;;;;13.57;7.88;;;;;;;;;;5003863;28;20041;-69
2023/03/07 06:11:25;;;;;;;11.60;7.93;;;;;;;;;;5005486;28;20041;-66
2023/03/07 06:13:50;;;;;;;6.72;5.20;;;;;;;;;;5009169;28;20030;-67
2023/03/07 06:16:16;;;;;;;10.70;7.57;;;;;;;;;;5004193;28;20037;-68
2023/03/07 06:18:42;;;;;;;12.02;5.65;;;;;;;;;;4987501;28;20088;-67
2023/03/07 06:21:11;;;;;;;10.13;5.80;;;;;;;;;;4998095;28;20038;-67
2023/03/07 06:23:42;;;;;;;12.30;6.22;;;;;;;;;;5005702;28;20045;-71
2023/03/07 06:26:11;;;;;;;11.50;7.03;;;;;;;;;;5002016;28;20049;-67
2023/03/07 06:28:41;;;;;;;7.53;6.18;;;;;;;;;;4992177;28;20041;-67
2023/03/07 06:31:14;;;;;;;8.73;6.38;;;;;;;;;;5006851;28;20501;-69
2023/03/07 06:33:40;;;;;;;9.45;6.57;;;;;;;;;;5004481;28;20347;-67
2023/03/07 06:36:07;;;;;;;10.25;6.78;;;;;;;;;;5004843;28;20449;-68
2023/03/07 06:38:33;;;;;;;11.60;7.35;;;;;;;;;;5007164;28;20088;-68
2023/03/07 06:41:00;;;;;;;11.05;6.82;;;;;;;;;;5007109;28;20042;-68
2023/03/07 06:43:26;;;;;;;13.57;7.78;;;;;;;;;;5006172;28;20053;-68
2023/03/07 06:45:52;;;;;;;11.27;6.70;;;;;;;;;;5007022;28;20030;-68
2023/03/07 06:48:18;;;;;;;9.95;7.28;;;;;;;;;;5007918;28;20092;-68
2023/03/07 06:50:44;;;;;;;8.48;5.85;;;;;;;;;;5006912;28;20057;-68
2023/03/07 06:53:10;;;;;;;13.02;8.27;;;;;;;;;;5004869;28;20034;-69
2023/03/07 06:55:36;;;;;;;8.23;6.28;;;;;;;;;;5007392;28;20034;-69
2023/03/07 06:58:01;;;;;;;9.38;6.63;;;;;;;;;;5008479;28;20038;-69
2023/03/07 07:00:27;;;;;;;10.40;6.43;;;;;;;;;;5005837;28;20034;-71
2023/03/07 07:02:53;;;;;;;10.25;7.70;;;;;;;;;;5008946;28;20046;-70
2023/03/07 07:05:19;;;;;;;7.47;6.20;;;;;;;;;;5011170;28;20477;-71
2023/03/07 07:07:45;;;;;;;8.68;6.38;;;;;;;;;;5011092;28;20486;-69
2023/03/07 07:10:11;;;;;;;7.60;5.68;;;;;;;;;;5008738;28;20034;-69
2023/03/07 07:12:37;;;;;;;14.40;6.93;;;;;;;;;;5011089;28;20457;-67
2023/03/07 07:15:04;;;;;;;8.73;5.72;;;;;;;;;;5006834;28;20073;-67
2023/03/07 07:17:31;;;;;;;9.30;7.15;;;;;;;;;;4998520;28;20069;-69
2023/03/07 07:19:57;;;;;;;11.40;6.60;;;;;;;;;;5006287;28;20125;-68
2023/03/07 07:22:23;;;;;;;14.18;8.05;;;;;;;;;;5009328;28;20121;-69
2023/03/07 07:24:49;;;;;;;11.77;7.70;;;;;;;;;;5006406;28;20045;-68
2023/03/07 07:27:14;;;;;;;7.60;5.72;;;;;;;;;;5005785;28;20085;-68
2023/03/07 07:29:41;;;;;;;9.43;6.35;;;;;;;;;;5004980;28;20036;-67
2023/03/07 07:32:08;;;;;;;9.65;6.97;;;;;;;;;;5007312;28;20487;-70
2023/03/07 07:34:34;;;;;;;11.45;7.00;;;;;;;;;;5007746;28;20037;-68
2023/03/07 07:37:00;;;;;;;10.70;7.45;;;;;;;;;;5006122;28;20034;-67
2023/03/07 07:39:26;;;;;;;8.98;6.80;;;;;;;;;;5008727;28;20509;-70
2023/03/07 07:41:52;;;;;;;10.95;7.43;;;;;;;;;;5009744;28;20045;-68
2023/03/07 07:44:20;;;;;;;8.43;6.38;;;;;;;;;;5008664;28;20121;-68
2023/03/07 07:46:52;;;;;;;9.77;6.63;;;;;;;;;;5009474;28;20041;-68
2023/03/07 07:49:17;;;;;;;12.68;6.97;;;;;;;;;;5006159;28;20049;-68
2023/03/07 07:51:43;;;;;;;9.32;6.40;;;;;;;;;;5005800;28;20034;-69
2023/03/07 07:54:09;;;;;;;9.40;6.88;;;;;;;;;;5009164;28;20060;-68
2023/03/07 07:56:35;;;;;;;14.45;8.07;;;;;;;;;;5009430;28;20042;-67
2023/03/07 07:59:00;;;;;;;11.30;7.10;;;;;;;;;;5008292;28;20396;-67
2023/03/07 08:01:27;;;;;;;8.90;5.88;;;;;;;;;;5007576;28;20279;-68
2023/03/07 08:03:52;;;;;;;9.07;6.88;;;;;;;;;;5010168;28;20398;-67
2023/03/07 08:06:23;;;;;;;11.13;7.32;;;;;;;;;;5009223;28;20041;-68
2023/03/07 08:08:49;;;;;;;10.75;7.35;;;;;;;;;;5009056;28;20064;-67
2023/03/07 08:11:15;;;;;;;11.43;8.20;;;;;;;;;;5008783;28;20513;-68
2023/03/07 08:13:42;;;;;;;9.82;8.27;;;;;;;;;;5009689;28;20069;-70
2023/03/07 08:16:13;;;;;;;12.25;8.38;;;;;;;;;;5010023;28;20073;-69
2023/03/07 08:18:40;;;;;;;11.75;8.75;;;;;;;;;;5010215;28;20034;-67
2023/03/07 08:21:07;;;;;;;10.52;8.45;;;;;;;;;;5008366;28;20033;-68
2023/03/07 08:23:33;;;;;;;12.02;7.88;;;;;;;;;;5009062;28;20065;-69
2023/03/07 08:26:03;;;;;;;11.93;8.57;;;;;;;;;;5005386;28;20057;-68
2023/03/07 08:28:29;;;;;;;10.05;8.15;;;;;;;;;;5007103;28;20117;-67
2023/03/07 08:30:55;;;;;;;10.27;7.97;;;;;;;;;;5010876;28;20110;-68
2023/03/07 08:33:20;;;;;;;10.60;7.82;;;;;;;;;;5009707;28;20036;-70
2023/03/07 08:35:46;;;;;;;10.70;8.30;;;;;;;;;;5007061;28;21283;-69
2023/03/07 08:38:12;;;;;;;12.75;8.15;;;;;;;;;;5008674;28;20121;-67
2023/03/07 08:40:37;;;;;;;10.10;8.45;;;;;;;;;;5009600;28;20038;-68
2023/03/07 08:43:03;;;;;;;13.38;8.32;;;;;;;;;;5009608;28;20096;-70
2023/03/07 08:45:29;;;;;;;9.40;7.22;;;;;;;;;;5008793;28;20025;-69
2023/03/07 08:47:55;;;;;;;12.68;7.80;;;;;;;;;;5009381;28;20052;-68
2023/03/07 08:50:26;;;;;;;11.80;8.68;;;;;;;;;;5008528;28;20109;-69
2023/03/07 08:52:52;;;;;;;8.18;6.82;;;;;;;;;;5008238;28;20037;-68
2023/03/07 08:55:18;;;;;;;7.60;6.53;;;;;;;;;;5006769;28;20080;-68
2023/03/07 08:57:46;;;;;;;13.75;9.07;;;;;;;;;;5009435;28;20041;-68
2023/03/07 09:00:13;;;;;;;12.70;8.30;;;;;;;;;;5009188;28;20593;-69
2023/03/07 09:02:39;;;;;;;8.50;6.57;;;;;;;;;;5003724;28;20386;-68
2023/03/07 09:05:05;;;;;;;10.30;7.35;;;;;;;;;;5008143;28;20049;-68
2023/03/07 09:07:30;;;;;;;10.32;8.15;;;;;;;;;;5009180;28;20058;-68
2023/03/07 09:09:56;;;;;;;7.50;6.70;;;;;;;;;;5006795;28;20072;-67
2023/03/07 09:12:22;;;;;;;10.40;7.07;;;;;;;;;;5004568;28;20053;-67
2023/03/07 09:14:47;;;;;;;10.13;6.45;;;;;;;;;;5008700;28;20033;-71
2023/03/07 09:17:14;;;;;;;9.48;8.32;;;;;;;;;;5009211;28;20036;-66
2023/03/07 09:19:41;;;;;;;14.48;8.77;;;;;;;;;;5006172;28;20025;-69
2023/03/07 09:22:07;;;;;;;9.52;7.53;;;;;;;;;;5003915;28;20056;-66
2023/03/07 09:24:33;;;;;;;9.77;8.20;;;;;;;;;;5007973;28;20404;-66
2023/03/07 09:26:58;;;;;;;12.88;8.90;;;;;;;;;;5009013;28;20038;-70
2023/03/07 09:29:24;;;;;;;12.82;9.60;;;;;;;;;;5004804;28;20057;-69
2023/03/07 09:31:49;;;;;;;11.15;8.82;;;;;;;;;;5008702;28;20101;-68
2023/03/07 09:34:15;;;;;;;8.70;7.30;;;;;;;;;;5009159;28;20041;-69
2023/03/07 09:36:41;;;;;;;10.50;8.88;;;;;;;;;;5006690;28;20171;-70
2023/03/07 09:39:07;;;;;;;9.75;7.40;;;;;;;;;;5003221;28;20601;-69
2023/03/07 09:41:32;;;;;;;10.00;7.90;;;;;;;;;;5008964;28;20037;-69
2023/03/07 09:44:19;;;;;;;15.25;8.27;;;;;;;;;;5013103;28;20042;-68
2023/03/07 09:47:16;;;;;;;14.90;7.60;;;;;;;;;;5007332;28;20152;-69
2023/03/07 09:49:52;;;;;;;9.10;7.53;;;;;;;;;;5007144;28;20065;-66
2023/03/07 09:52:26;;;;;;;8.43;7.20;;;;;;;;;;5008333;28;20041;-70
2023/03/07 09:54:56;;;;;;;10.68;7.60;;;;;;;;;;4991911;28;20053;-67
2023/03/07 09:57:28;;;;;;;8.98;6.57;;;;;;;;;;5008047;28;20099;-69
2023/03/07 10:00:05;;;;;;;8.93;6.30;;;;;;;;;;5008720;28;20038;-68
2023/03/07 10:02:53;;;;;;;8.75;7.60;;;;;;;;;;5005300;28;20060;-67
2023/03/07 10:05:34;;;;;;;8.65;7.50;;;;;;;;;;5008507;28;20473;-68
2023/03/07 10:08:00;;;;;;;12.43;7.22;;;;;;;;;;5008827;28;20041;-67
2023/03/07 10:10:38;;;;;;;9.23;6.95;;;;;;;;;;5004693;28;20295;-67
2023/03/07 10:13:10;;;;;;;7.53;6.20;;;;;;;;;;5004626;28;20446;-66
2023/03/07 10:15:49;;;;;;;10.32;7.47;;;;;;;;;;5008543;28;20224;-66
2023/03/07 10:18:15;;;;;;;7.35;5.90;;;;;;;;;;5006273;28;20402;-67
2023/03/07 10:21:16;;;;;;;7.10;5.50;;;;;;;;;;5006285;28;20579;-67
2023/03/07 10:24:19;;;;;;;8.55;6.38;;;;;;;;;;5009604;28;20034;-66
2023/03/07 10:27:00;;;;;;;10.15;6.80;;;;;;;;;;5008687;28;20068;-69
2023/03/07 10:29:31;;;;;;;8.82;6.50;;;;;;;;;;5005965;28;20037;-68
2023/03/07 10:32:35;;;;;;;10.88;7.28;;;;;;;;;;5008187;28;20271;-67
2023/03/07 10:35:09;;;;;;;7.50;6.63;;;;;;;;;;5002015;28;20045;-67
2023/03/07 10:37:57;;;;;;;12.60;7.63;;;;;;;;;;5012000;28;20034;-69
2023/03/07 10:40:30;;;;;;;12.63;7.00;;;;;;;;;;5007502;28;20034;-67
2023/03/07 10:42:56;;;;;;;10.50;7.90;;;;;;;;;;5012653;28;20145;-67
2023/03/07 10:45:22;;;;;;;11.07;6.60;;;;;;;;;;5008684;28;20113;-66
2023/03/07 10:47:47;;;;;;;8.52;6.47;;;;;;;;;;5008800;28;20117;-69
2023/03/07 10:50:33;;;;;;;11.60;7.15;;;;;;;;;;5009794;28;20050;-67
2023/03/07 10:53:00;;;;;;;9.90;6.88;;;;;;;;;;5014539;28;20040;-66
2023/03/07 10:55:32;;;;;;;9.30;6.45;;;;;;;;;;5011732;28;20061;-69
2023/03/07 10:58:14;;;;;;;11.10;6.80;;;;;;;;;;5005891;28;20258;-67
2023/03/07 11:00:43;;;;;;;9.57;7.10;;;;;;;;;;5011631;28;20151;-67
2023/03/07 11:03:26;;;;;;;9.68;6.88;;;;;;;;;;5007692;28;20041;-67
2023/03/07 11:05:51;;;;;;;11.75;7.07;;;;;;;;;;5008393;28;20096;-66
2023/03/07 11:08:27;;;;;;;7.53;5.63;;;;;;;;;;5010167;28;20042;-67
2023/03/07 11:10:54;;;;;;;9.80;7.60;;;;;;;;;;5013071;28;20067;-66
2023/03/07 11:13:21;;;;;;;10.50;7.63;;;;;;;;;;5012515;28;20497;-69
2023/03/07 11:15:47;;;;;;;8.15;5.90;;;;;;;;;;5021094;28;20068;-70
2023/03/07 11:18:36;;;;;;;10.30;7.22;;;;;;;;;;5018689;28;20064;-66
2023/03/07 11:21:02;;;;;;;7.40;5.93;;;;;;;;;;5004313;28;20477;-66
2023/03/07 11:23:30;;;;;;;13.77;7.43;;;;;;;;;;5008971;28;20037;-67
2023/03/07 11:26:12;;;;;;;8.95;6.35;;;;;;;;;;5012533;28;20033;-67
2023/03/07 11:28:39;;;;;;;9.77;6.70;;;;;;;;;;5010930;28;20042;-67
2023/03/07 11:31:20;;;;;;;10.90;7.35;;;;;;;;;;5008578;28;20030;-68
2023/03/07 11:34:05;;;;;;;11.27;7.63;;;;;;;;;;5010653;28;20037;-68
2023/03/07 11:36:35;;;;;;;8.48;6.43;;;;;;;;;;5010131;28;20041;-69
2023/03/07 11:39:16;;;;;;;11.68;7.68;;;;;;;;;;5005092;28;20124;-67
2023/03/07 11:41:46;;;;;;;8.93;6.68;;;;;;;;;;5008795;28;20052;-66
2023/03/07 11:44:21;;;;;;;10.57;6.97;;;;;;;;;;5008494;28;20088;-69
2023/03/07 11:47:42;;;;;;;15.73;10.07;;;;;;;;;;5008798;28;20503;-66
2023/03/07 11:50:23;;;;;;;14.55;9.93;;;;;;;;;;5029306;28;20400;-68
2023/03/07 11:52:54;;;;;;;9.82;7.70;;;;;;;;;;5034363;28;20036;-67
2023/03/07 11:55:46;;;;;;;10.20;7.35;;;;;;;;;;5025694;28;20103;-66
2023/03/07 11:58:36;;;;;;;14.52;10.40;;;;;;;;;;5009966;28;20071;-68
2023/03/07 12:01:13;;;;;;;12.10;8.95;;;;;;;;;;5025121;28;20041;-68
2023/03/07 12:03:45;;;;;;;10.90;8.75;;;;;;;;;;5023491;28;20061;-68
2023/03/07 12:06:24;;;;;;;9.90;6.38;;;;;;;;;;5025430;28;20045;-67
2023/03/07 12:09:21;;;;;;;11.45;8.75;;;;;;;;;;5025084;28;20124;-65
2023/03/07 12:12:02;;;;;;;10.02;7.35;;;;;;;;;;5024493;28;20076;-67
2023/03/07 12:15:00;;;;;;;13.80;7.47;;;;;;;;;;5025528;28;20057;-68
2023/03/07 12:18:03;;;;;;;10.40;7.63;;;;;;;;;;5025059;28;20154;-66
2023/03/07 12:21:25;;;;;;;10.93;8.32;;;;;;;;;;4913891;29;20063;-67
2023/03/07 12:23:55;;;;;;;11.18;9.05;;;;;;;;;;4937658;28;20099;-66
2023/03/07 12:26:35;;;;;;;11.02;7.10;;;;;;;;;;4928213;29;20048;-66
2023/03/07 12:29:08;;;;;;;11.00;7.85;;;;;;;;;;4927725;29;20157;-66
2023/03/07 12:31:42;;;;;;;15.13;7.20;;;;;;;;;;4928364;29;20496;-66
2023/03/07 12:34:19;;;;;;;10.15;6.30;;;;;;;;;;4927978;29;20062;-66
2023/03/07 12:36:59;;;;;;;11.45;7.47;;;;;;;;;;4927250;29;20039;-68
2023/03/07 12:39:43;;;;;;;14.23;8.55;;;;;;;;;;4926581;29;20163;-67
2023/03/07 12:42:31;;;;;;;12.20;6.20;;;;;;;;;;4927286;29;20126;-67
2023/03/07 12:45:09;;;;;;;9.38;6.60;;;;;;;;;;4912498;29;20043;-69
2023/03/07 12:47:44;;;;;;;11.65;7.35;;;;;;;;;;4927678;29;20447;-68
2023/03/07 12:50:16;;;;;;;14.70;8.52;;;;;;;;;;4926183;29;20035;-68
2023/03/07 12:52:57;;;;;;;6.80;5.55;;;;;;;;;;4924226;29;20126;-66
2023/03/07 12:55:33;;;;;;;9.88;7.45;;;;;;;;;;4989682;28;20054;-67
2023/03/07 12:58:18;;;;;;;9.63;7.75;;;;;;;;;;4994624;28;20041;-68
2023/03/07 13:01:10;;;;;;;8.05;6.90;;;;;;;;;;5003664;28;20036;-67
2023/03/07 13:04:15;;;;;;;8.88;6.65;;;;;;;;;;4999556;28;20049;-68
2023/03/07 13:06:42;;;;;;;10.98;6.43;;;;;;;;;;4998829;28;20064;-67
2023/03/07 13:09:17;;;;;;;7.03;5.80;;;;;;;;;;4999809;28;20038;-67
2023/03/07 13:12:22;;;;;;;11.50;7.57;;;;;;;;;;5004792;28;20030;-69
2023/03/07 13:14:52;;;;;;;8.40;6.38;;;;;;;;;;4991267;28;20030;-69
2023/03/07 13:17:29;;;;;;;11.18;6.90;;;;;;;;;;5001545;28;20040;-67
2023/03/07 13:20:13;;;;;;;7.65;6.75;;;;;;;;;;5007373;28;20034;-67
2023/03/07 13:22:39;;;;;;;11.95;6.95;;;;;;;;;;5003681;28;21530;-68
2023/03/07 13:25:19;;;;;;;7.35;5.93;;;;;;;;;;4998984;28;20045;-68
2023/03/07 13:27:53;;;;;;;7.70;6.07;;;;;;;;;;5005399;28;20034;-68
2023/03/07 13:30:29;;;;;;;9.15;6.10;;;;;;;;;;5004312;28;20120;-70
2023/03/07 13:33:19;;;;;;;8.52;6.25;;;;;;;;;;5007567;28;20061;-67
2023/03/07 13:35:56;;;;;;;11.18;6.97;;;;;;;;;;5001330;28;20041;-68
2023/03/07 13:38:37;;;;;;;9.05;5.90;;;;;;;;;;5007051;28;20091;-67
2023/03/07 13:41:04;;;;;;;7.20;6.00;;;;;;;;;;5002032;28;20476;-68
2023/03/07 13:43:29;;;;;;;7.50;6.20;;;;;;;;;;4988996;28;20053;-69
2023/03/07 13:46:20;;;;;;;7.68;5.70;;;;;;;;;;5004204;28;20038;-68
2023/03/07 13:48:46;;;;;;;5.32;4.70;;;;;;;;;;5006903;28;20138;-67
2023/03/07 13:51:11;;;;;;;8.40;5.28;;;;;;;;;;5006099;28;20121;-68
2023/03/07 13:53:53;;;;;;;6.15;5.25;;;;;;;;;;5003667;28;20037;-69
2023/03/07 13:56:27;;;;;;;7.03;5.78;;;;;;;;;;5007610;28;20678;-66
2023/03/07 13:58:55;;;;;;;6.68;4.82;;;;;;;;;;5004852;28;20105;-66
2023/03/07 14:01:57;;;;;;;7.05;6.30;;;;;;;;;;5007267;28;20049;-67
2023/03/07 14:04:50;;;;;;;9.77;6.22;;;;;;;;;;4984220;28;20100;-68
2023/03/07 14:07:26;;;;;;;8.32;6.28;;;;;;;;;;4973256;28;20054;-68
2023/03/07 14:10:08;;;;;;;5.68;5.10;;;;;;;;;;4965090;28;20126;-67
2023/03/07 14:13:05;;;;;;;6.20;5.60;;;;;;;;;;4969557;28;20486;-69
2023/03/07 14:16:02;;;;;;;6.22;5.57;;;;;;;;;;4985847;28;20169;-66
2023/03/07 14:18:45;;;;;;;5.60;4.75;;;;;;;;;;4984517;28;20034;-68
2023/03/07 14:21:51;;;;;;;12.07;6.25;;;;;;;;;;4973357;28;20141;-68
2023/03/07 14:25:03;;;;;;;9.52;5.63;;;;;;;;;;4994697;28;20034;-69
2023/03/07 14:27:30;;;;;;;6.53;5.60;;;;;;;;;;4995571;28;20074;-68
2023/03/07 14:29:56;;;;;;;8.55;5.53;;;;;;;;;;4971651;28;20068;-68
2023/03/07 14:32:23;;;;;;;5.53;4.97;;;;;;;;;;4988319;28;20676;-67
2023/03/07 14:34:49;;;;;;;5.88;5.13;;;;;;;;;;4980795;28;20500;-68
2023/03/07 14:37:34;;;;;;;7.30;5.57;;;;;;;;;;4978041;28;20037;-67
2023/03/07 14:40:10;;;;;;;7.85;6.10;;;;;;;;;;4986816;28;20453;-67
2023/03/07 14:42:59;;;;;;;8.73;6.65;;;;;;;;;;5002757;28;20074;-68
2023/03/07 14:45:40;;;;;;;;;;;;;;;;;;5003901;28;20042;-67
2023/03/07 14:48:32;;;;;;;7.72;6.25;;;;;;;;;;5007780;28;19914;-69
2023/03/07 14:51:05;;;;;;;7.57;5.93;;;;;;;;;;5004364;28;20136;-68
2023/03/07 14:53:33;;;;;;;5.90;5.03;;;;;;;;;;5006159;28;20465;-66
2023/03/07 14:56:00;;;;;;;5.90;4.85;;;;;;;;;;5002451;28;20072;-68
2023/03/07 14:58:31;;;;;;;8.00;4.90;;;;;;;;;;5003934;28;20042;-70
2023/03/07 15:01:02;;;;;;;5.72;5.07;;;;;;;;;;4997318;28;20129;-69